sensor_id;sensor_type;location;lat;lon;timestamp;P1;durP1;ratioP1;P2;durP2;ratioP2
75216;SDS011;63800;51.972;5.682;2023-03-23T00:00:44;6.63;;;4.22;;
75216;SDS011;63800;51.972;5.682;2023-03-23T00:03:09;5.78;;;3.72;;
75216;SDS011;63800;51.972;5.682;2023-03-23T00:05:34;4.95;;;3.97;;
75216;SDS011;63800;51.972;5.682;2023-03-23T00:08:02;6.57;;;3.90;;
75216;SDS011;63800;51.972;5.682;2023-03-23T00:10:28;6.55;;;4.25;;
75216;SDS011;63800;51.972;5.682;2023-03-23T00:12:57;6.72;;;3.55;;
75216;SDS011;63800;51.972;5.682;2023-03-23T00:15:27;8.07;;;4.00;;
75216;SDS011;63800;51.972;5.682;2023-03-23T00:17:58;6.75;;;4.30;;
75216;SDS011;63800;51.972;5.682;2023-03-23T00:20:30;6.60;;;3.40;;
75216;SDS011;63800;51.972;5.682;2023-03-23T00:23:05;5.95;;;3.78;;
75216;SDS011;63800;51.972;5.682;2023-03-23T00:25:31;5.05;;;3.55;;
75216;SDS011;63800;51.972;5.682;2023-03-23T00:27:57;6.47;;;3.80;;
75216;SDS011;63800;51.972;5.682;2023-03-23T00:30:22;5.85;;;3.70;;
75216;SDS011;63800;51.972;5.682;2023-03-23T00:32:48;5.10;;;3.80;;
75216;SDS011;63800;51.972;5.682;2023-03-23T00:35:15;7.80;;;3.97;;
75216;SDS011;63800;51.972;5.682;2023-03-23T00:37:42;9.73;;;4.57;;
75216;SDS011;63800;51.972;5.682;2023-03-23T00:40:08;6.15;;;3.45;;
75216;SDS011;63800;51.972;5.682;2023-03-23T00:42:35;5.78;;;3.53;;
75216;SDS011;63800;51.972;5.682;2023-03-23T00:45:03;6.47;;;4.03;;
75216;SDS011;63800;51.972;5.682;2023-03-23T00:47:35;6.38;;;3.60;;
75216;SDS011;63800;51.972;5.682;2023-03-23T00:50:05;5.93;;;3.15;;
75216;SDS011;63800;51.972;5.682;2023-03-23T00:52:31;6.25;;;3.92;;
75216;SDS011;63800;51.972;5.682;2023-03-23T00:54:57;5.35;;;3.53;;
75216;SDS011;63800;51.972;5.682;2023-03-23T00:57:22;8.13;;;3.95;;
75216;SDS011;63800;51.972;5.682;2023-03-23T00:59:49;5.78;;;3.72;;
75216;SDS011;63800;51.972;5.682;2023-03-23T01:02:16;5.88;;;3.80;;
75216;SDS011;63800;51.972;5.682;2023-03-23T01:04:42;8.07;;;4.03;;
75216;SDS011;63800;51.972;5.682;2023-03-23T01:07:11;9.88;;;3.95;;
75216;SDS011;63800;51.972;5.682;2023-03-23T01:09:43;7.57;;;4.00;;
75216;SDS011;63800;51.972;5.682;2023-03-23T01:12:09;7.50;;;3.72;;
75216;SDS011;63800;51.972;5.682;2023-03-23T01:14:37;6.88;;;3.50;;
75216;SDS011;63800;51.972;5.682;2023-03-23T01:17:03;6.40;;;4.18;;
75216;SDS011;63800;51.972;5.682;2023-03-23T01:19:29;4.28;;;3.58;;
75216;SDS011;63800;51.972;5.682;2023-03-23T01:21:54;4.88;;;3.67;;
75216;SDS011;63800;51.972;5.682;2023-03-23T01:24:20;5.93;;;3.67;;
75216;SDS011;63800;51.972;5.682;2023-03-23T01:26:45;5.32;;;3.60;;
75216;SDS011;63800;51.972;5.682;2023-03-23T01:29:11;7.20;;;3.80;;
75216;SDS011;63800;51.972;5.682;2023-03-23T01:31:36;6.25;;;3.90;;
75216;SDS011;63800;51.972;5.682;2023-03-23T01:34:02;5.53;;;3.78;;
75216;SDS011;63800;51.972;5.682;2023-03-23T01:36:29;6.72;;;4.20;;
75216;SDS011;63800;51.972;5.682;2023-03-23T01:38:57;5.63;;;3.97;;
75216;SDS011;63800;51.972;5.682;2023-03-23T01:41:24;6.53;;;3.72;;
75216;SDS011;63800;51.972;5.682;2023-03-23T01:46:41;6.00;;;4.00;;
75216;SDS011;63800;51.972;5.682;2023-03-23T01:49:09;7.80;;;4.22;;
75216;SDS011;63800;51.972;5.682;2023-03-23T01:51:57;5.68;;;4.35;;
75216;SDS011;63800;51.972;5.682;2023-03-23T01:54:24;5.20;;;3.80;;
75216;SDS011;63800;51.972;5.682;2023-03-23T01:56:53;5.45;;;3.65;;
75216;SDS011;63800;51.972;5.682;2023-03-23T01:59:23;6.82;;;4.07;;
75216;SDS011;63800;51.972;5.682;2023-03-23T02:01:52;10.18;;;4.40;;
75216;SDS011;63800;51.972;5.682;2023-03-23T02:04:18;4.82;;;3.80;;
75216;SDS011;63800;51.972;5.682;2023-03-23T02:06:45;5.85;;;3.80;;
75216;SDS011;63800;51.972;5.682;2023-03-23T02:09:11;5.15;;;4.10;;
75216;SDS011;63800;51.972;5.682;2023-03-23T02:11:44;6.00;;;4.25;;
75216;SDS011;63800;51.972;5.682;2023-03-23T02:14:10;5.07;;;4.05;;
75216;SDS011;63800;51.972;5.682;2023-03-23T02:17:22;5.85;;;4.45;;
75216;SDS011;63800;51.972;5.682;2023-03-23T02:31:16;6.75;;;4.45;;
75216;SDS011;63800;51.972;5.682;2023-03-23T02:38:58;4.70;;;4.05;;
75216;SDS011;63800;51.972;5.682;2023-03-23T02:41:36;5.55;;;4.25;;
75216;SDS011;63800;51.972;5.682;2023-03-23T02:44:22;5.55;;;4.43;;
75216;SDS011;63800;51.972;5.682;2023-03-23T02:46:50;7.22;;;4.60;;
75216;SDS011;63800;51.972;5.682;2023-03-23T02:49:17;7.20;;;4.82;;
75216;SDS011;63800;51.972;5.682;2023-03-23T02:51:44;6.35;;;4.63;;
75216;SDS011;63800;51.972;5.682;2023-03-23T02:54:12;5.82;;;4.45;;
75216;SDS011;63800;51.972;5.682;2023-03-23T02:56:40;5.90;;;4.47;;
75216;SDS011;63800;51.972;5.682;2023-03-23T02:59:05;5.95;;;4.50;;
75216;SDS011;63800;51.972;5.682;2023-03-23T03:04:03;7.57;;;4.60;;
75216;SDS011;63800;51.972;5.682;2023-03-23T03:06:50;6.75;;;4.55;;
75216;SDS011;63800;51.972;5.682;2023-03-23T03:12:12;7.28;;;4.50;;
75216;SDS011;63800;51.972;5.682;2023-03-23T03:15:07;5.28;;;4.13;;
75216;SDS011;63800;51.972;5.682;2023-03-23T03:17:30;7.28;;;4.60;;
75216;SDS011;63800;51.972;5.682;2023-03-23T03:19:57;5.57;;;4.22;;
75216;SDS011;63800;51.972;5.682;2023-03-23T03:22:31;7.45;;;4.40;;
75216;SDS011;63800;51.972;5.682;2023-03-23T03:24:58;6.15;;;4.43;;
75216;SDS011;63800;51.972;5.682;2023-03-23T03:27:25;6.38;;;4.32;;
75216;SDS011;63800;51.972;5.682;2023-03-23T03:29:53;7.20;;;3.90;;
75216;SDS011;63800;51.972;5.682;2023-03-23T03:32:24;7.10;;;3.80;;
75216;SDS011;63800;51.972;5.682;2023-03-23T03:34:56;6.43;;;4.05;;
75216;SDS011;63800;51.972;5.682;2023-03-23T03:37:24;7.07;;;3.50;;
75216;SDS011;63800;51.972;5.682;2023-03-23T03:39:50;6.80;;;4.10;;
75216;SDS011;63800;51.972;5.682;2023-03-23T03:42:16;7.10;;;4.40;;
75216;SDS011;63800;51.972;5.682;2023-03-23T03:44:41;7.03;;;4.22;;
75216;SDS011;63800;51.972;5.682;2023-03-23T03:47:07;8.10;;;4.50;;
75216;SDS011;63800;51.972;5.682;2023-03-23T03:49:32;6.82;;;3.88;;
75216;SDS011;63800;51.972;5.682;2023-03-23T03:51:58;7.32;;;4.43;;
75216;SDS011;63800;51.972;5.682;2023-03-23T03:54:23;5.82;;;3.85;;
75216;SDS011;63800;51.972;5.682;2023-03-23T03:56:48;6.53;;;4.00;;
75216;SDS011;63800;51.972;5.682;2023-03-23T03:59:16;6.80;;;4.53;;
75216;SDS011;63800;51.972;5.682;2023-03-23T04:01:42;8.25;;;4.40;;
75216;SDS011;63800;51.972;5.682;2023-03-23T04:04:08;5.50;;;3.55;;
75216;SDS011;63800;51.972;5.682;2023-03-23T04:06:33;5.93;;;3.72;;
75216;SDS011;63800;51.972;5.682;2023-03-23T04:09:01;4.88;;;3.40;;
75216;SDS011;63800;51.972;5.682;2023-03-23T04:11:31;6.45;;;3.17;;
75216;SDS011;63800;51.972;5.682;2023-03-23T04:13:57;4.57;;;3.67;;
75216;SDS011;63800;51.972;5.682;2023-03-23T04:16:22;6.18;;;3.80;;
75216;SDS011;63800;51.972;5.682;2023-03-23T04:18:47;6.65;;;3.53;;
75216;SDS011;63800;51.972;5.682;2023-03-23T04:21:13;6.90;;;3.30;;
75216;SDS011;63800;51.972;5.682;2023-03-23T04:23:39;10.32;;;3.70;;
75216;SDS011;63800;51.972;5.682;2023-03-23T04:26:05;6.20;;;3.08;;
75216;SDS011;63800;51.972;5.682;2023-03-23T04:28:31;4.82;;;3.08;;
75216;SDS011;63800;51.972;5.682;2023-03-23T04:30:59;5.82;;;3.13;;
75216;SDS011;63800;51.972;5.682;2023-03-23T04:33:26;6.05;;;3.63;;
75216;SDS011;63800;51.972;5.682;2023-03-23T04:35:56;4.97;;;3.50;;
75216;SDS011;63800;51.972;5.682;2023-03-23T04:38:25;6.88;;;3.60;;
75216;SDS011;63800;51.972;5.682;2023-03-23T04:40:52;5.82;;;3.20;;
75216;SDS011;63800;51.972;5.682;2023-03-23T04:43:19;5.35;;;3.22;;
75216;SDS011;63800;51.972;5.682;2023-03-23T04:45:55;6.40;;;3.50;;
75216;SDS011;63800;51.972;5.682;2023-03-23T04:50:48;6.57;;;3.20;;
75216;SDS011;63800;51.972;5.682;2023-03-23T04:53:15;5.00;;;3.30;;
75216;SDS011;63800;51.972;5.682;2023-03-23T04:55:43;7.88;;;2.78;;
75216;SDS011;63800;51.972;5.682;2023-03-23T04:58:08;6.13;;;2.90;;
75216;SDS011;63800;51.972;5.682;2023-03-23T05:00:35;5.03;;;2.90;;
75216;SDS011;63800;51.972;5.682;2023-03-23T05:03:00;9.00;;;3.97;;
75216;SDS011;63800;51.972;5.682;2023-03-23T05:05:27;4.88;;;3.35;;
75216;SDS011;63800;51.972;5.682;2023-03-23T05:07:54;7.00;;;2.75;;
75216;SDS011;63800;51.972;5.682;2023-03-23T05:10:20;4.65;;;3.25;;
75216;SDS011;63800;51.972;5.682;2023-03-23T05:12:45;6.25;;;2.90;;
75216;SDS011;63800;51.972;5.682;2023-03-23T05:15:12;7.32;;;3.10;;
75216;SDS011;63800;51.972;5.682;2023-03-23T05:17:39;7.40;;;2.88;;
75216;SDS011;63800;51.972;5.682;2023-03-23T05:20:06;6.72;;;2.95;;
75216;SDS011;63800;51.972;5.682;2023-03-23T05:22:36;8.57;;;2.67;;
75216;SDS011;63800;51.972;5.682;2023-03-23T05:25:03;5.78;;;2.83;;
75216;SDS011;63800;51.972;5.682;2023-03-23T05:27:30;7.65;;;2.92;;
75216;SDS011;63800;51.972;5.682;2023-03-23T05:29:57;4.68;;;2.55;;
75216;SDS011;63800;51.972;5.682;2023-03-23T05:32:24;9.27;;;2.80;;
75216;SDS011;63800;51.972;5.682;2023-03-23T05:34:57;7.50;;;2.85;;
75216;SDS011;63800;51.972;5.682;2023-03-23T05:37:24;8.40;;;2.90;;
75216;SDS011;63800;51.972;5.682;2023-03-23T05:39:51;7.18;;;2.53;;
75216;SDS011;63800;51.972;5.682;2023-03-23T05:42:22;5.00;;;2.85;;
75216;SDS011;63800;51.972;5.682;2023-03-23T05:44:48;4.13;;;2.20;;
75216;SDS011;63800;51.972;5.682;2023-03-23T05:47:14;6.88;;;2.58;;
75216;SDS011;63800;51.972;5.682;2023-03-23T05:49:40;6.80;;;2.65;;
75216;SDS011;63800;51.972;5.682;2023-03-23T05:52:05;6.82;;;2.50;;
75216;SDS011;63800;51.972;5.682;2023-03-23T05:54:31;5.70;;;2.25;;
75216;SDS011;63800;51.972;5.682;2023-03-23T05:56:56;4.72;;;2.65;;
75216;SDS011;63800;51.972;5.682;2023-03-23T05:59:22;7.70;;;2.50;;
75216;SDS011;63800;51.972;5.682;2023-03-23T06:01:48;5.82;;;2.40;;
75216;SDS011;63800;51.972;5.682;2023-03-23T06:04:13;7.28;;;2.40;;
75216;SDS011;63800;51.972;5.682;2023-03-23T06:06:39;5.43;;;2.13;;
75216;SDS011;63800;51.972;5.682;2023-03-23T06:09:06;4.50;;;2.33;;
75216;SDS011;63800;51.972;5.682;2023-03-23T06:11:32;9.27;;;2.17;;
75216;SDS011;63800;51.972;5.682;2023-03-23T06:13:57;6.82;;;2.67;;
75216;SDS011;63800;51.972;5.682;2023-03-23T06:16:22;6.47;;;2.70;;
75216;SDS011;63800;51.972;5.682;2023-03-23T06:18:48;5.57;;;1.90;;
75216;SDS011;63800;51.972;5.682;2023-03-23T06:21:14;3.72;;;2.20;;
75216;SDS011;63800;51.972;5.682;2023-03-23T06:23:40;7.60;;;2.30;;
75216;SDS011;63800;51.972;5.682;2023-03-23T06:26:06;5.93;;;2.40;;
75216;SDS011;63800;51.972;5.682;2023-03-23T06:28:33;3.65;;;1.85;;
75216;SDS011;63800;51.972;5.682;2023-03-23T06:30:59;4.85;;;2.10;;
75216;SDS011;63800;51.972;5.682;2023-03-23T06:33:31;7.95;;;2.50;;
75216;SDS011;63800;51.972;5.682;2023-03-23T06:35:58;5.70;;;2.22;;
75216;SDS011;63800;51.972;5.682;2023-03-23T06:38:24;7.07;;;2.20;;
75216;SDS011;63800;51.972;5.682;2023-03-23T06:40:51;5.40;;;2.00;;
75216;SDS011;63800;51.972;5.682;2023-03-23T06:43:17;5.50;;;2.80;;
75216;SDS011;63800;51.972;5.682;2023-03-23T06:45:43;3.17;;;2.00;;
75216;SDS011;63800;51.972;5.682;2023-03-23T06:48:08;4.57;;;2.00;;
75216;SDS011;63800;51.972;5.682;2023-03-23T06:50:34;3.67;;;2.63;;
75216;SDS011;63800;51.972;5.682;2023-03-23T06:52:59;5.93;;;2.40;;
75216;SDS011;63800;51.972;5.682;2023-03-23T06:55:25;8.23;;;3.00;;
75216;SDS011;63800;51.972;5.682;2023-03-23T06:57:50;7.80;;;2.88;;
75216;SDS011;63800;51.972;5.682;2023-03-23T07:00:16;7.28;;;2.65;;
75216;SDS011;63800;51.972;5.682;2023-03-23T07:02:42;9.15;;;2.70;;
75216;SDS011;63800;51.972;5.682;2023-03-23T07:05:08;4.10;;;2.40;;
75216;SDS011;63800;51.972;5.682;2023-03-23T07:07:35;7.85;;;2.58;;
75216;SDS011;63800;51.972;5.682;2023-03-23T07:10:06;9.75;;;3.03;;
75216;SDS011;63800;51.972;5.682;2023-03-23T07:12:34;9.43;;;2.75;;
75216;SDS011;63800;51.972;5.682;2023-03-23T07:15:00;7.75;;;2.63;;
75216;SDS011;63800;51.972;5.682;2023-03-23T07:17:27;8.70;;;2.78;;
75216;SDS011;63800;51.972;5.682;2023-03-23T07:19:53;7.05;;;2.53;;
75216;SDS011;63800;51.972;5.682;2023-03-23T07:22:19;7.05;;;2.95;;
75216;SDS011;63800;51.972;5.682;2023-03-23T07:24:44;7.55;;;2.38;;
75216;SDS011;63800;51.972;5.682;2023-03-23T07:27:10;5.60;;;2.58;;
75216;SDS011;63800;51.972;5.682;2023-03-23T07:29:35;7.22;;;2.60;;
75216;SDS011;63800;51.972;5.682;2023-03-23T07:32:03;6.70;;;2.50;;
75216;SDS011;63800;51.972;5.682;2023-03-23T07:34:30;4.90;;;2.78;;
75216;SDS011;63800;51.972;5.682;2023-03-23T07:36:56;7.68;;;3.00;;
75216;SDS011;63800;51.972;5.682;2023-03-23T07:39:22;6.20;;;2.95;;
75216;SDS011;63800;51.972;5.682;2023-03-23T07:41:49;5.63;;;2.70;;
75216;SDS011;63800;51.972;5.682;2023-03-23T07:44:14;7.97;;;2.67;;
75216;SDS011;63800;51.972;5.682;2023-03-23T07:46:40;8.68;;;2.70;;
75216;SDS011;63800;51.972;5.682;2023-03-23T07:49:07;6.75;;;2.90;;
75216;SDS011;63800;51.972;5.682;2023-03-23T07:51:33;4.78;;;2.85;;
75216;SDS011;63800;51.972;5.682;2023-03-23T07:53:59;7.00;;;2.70;;
75216;SDS011;63800;51.972;5.682;2023-03-23T07:56:27;5.03;;;2.75;;
75216;SDS011;63800;51.972;5.682;2023-03-23T07:58:53;6.35;;;2.58;;
75216;SDS011;63800;51.972;5.682;2023-03-23T08:01:19;6.22;;;3.17;;
75216;SDS011;63800;51.972;5.682;2023-03-23T08:03:44;6.68;;;3.15;;
75216;SDS011;63800;51.972;5.682;2023-03-23T08:06:10;9.07;;;3.45;;
75216;SDS011;63800;51.972;5.682;2023-03-23T08:08:35;6.82;;;3.55;;
75216;SDS011;63800;51.972;5.682;2023-03-23T08:11:02;7.13;;;3.58;;
75216;SDS011;63800;51.972;5.682;2023-03-23T08:13:28;7.40;;;3.15;;
75216;SDS011;63800;51.972;5.682;2023-03-23T08:15:54;8.52;;;3.58;;
75216;SDS011;63800;51.972;5.682;2023-03-23T08:18:20;8.23;;;3.10;;
75216;SDS011;63800;51.972;5.682;2023-03-23T08:20:45;6.70;;;3.55;;
75216;SDS011;63800;51.972;5.682;2023-03-23T08:23:11;5.45;;;3.17;;
75216;SDS011;63800;51.972;5.682;2023-03-23T08:25:36;5.40;;;2.70;;
75216;SDS011;63800;51.972;5.682;2023-03-23T08:28:02;5.82;;;2.78;;
75216;SDS011;63800;51.972;5.682;2023-03-23T08:30:28;4.38;;;2.60;;
75216;SDS011;63800;51.972;5.682;2023-03-23T08:32:57;6.75;;;3.05;;
75216;SDS011;63800;51.972;5.682;2023-03-23T08:35:25;5.28;;;2.38;;
75216;SDS011;63800;51.972;5.682;2023-03-23T08:37:51;5.30;;;2.75;;
75216;SDS011;63800;51.972;5.682;2023-03-23T08:40:18;6.85;;;2.63;;
75216;SDS011;63800;51.972;5.682;2023-03-23T08:42:45;6.60;;;2.60;;
75216;SDS011;63800;51.972;5.682;2023-03-23T08:45:13;10.40;;;2.28;;
75216;SDS011;63800;51.972;5.682;2023-03-23T08:47:41;5.70;;;2.22;;
75216;SDS011;63800;51.972;5.682;2023-03-23T08:50:09;3.25;;;2.00;;
75216;SDS011;63800;51.972;5.682;2023-03-23T08:52:39;4.70;;;2.00;;
75216;SDS011;63800;51.972;5.682;2023-03-23T08:55:05;5.10;;;2.08;;
75216;SDS011;63800;51.972;5.682;2023-03-23T08:57:33;4.75;;;2.40;;
75216;SDS011;63800;51.972;5.682;2023-03-23T09:00:00;4.07;;;1.98;;
75216;SDS011;63800;51.972;5.682;2023-03-23T09:02:38;6.18;;;1.90;;
75216;SDS011;63800;51.972;5.682;2023-03-23T09:05:03;3.20;;;2.00;;
75216;SDS011;63800;51.972;5.682;2023-03-23T09:07:29;6.20;;;2.20;;
75216;SDS011;63800;51.972;5.682;2023-03-23T09:09:55;4.38;;;2.38;;
75216;SDS011;63800;51.972;5.682;2023-03-23T09:12:20;2.50;;;1.77;;
75216;SDS011;63800;51.972;5.682;2023-03-23T09:14:46;4.15;;;1.70;;
75216;SDS011;63800;51.972;5.682;2023-03-23T09:17:12;3.53;;;1.65;;
75216;SDS011;63800;51.972;5.682;2023-03-23T09:19:37;2.88;;;1.40;;
75216;SDS011;63800;51.972;5.682;2023-03-23T09:22:03;4.32;;;1.70;;
75216;SDS011;63800;51.972;5.682;2023-03-23T09:24:29;4.60;;;1.90;;
75216;SDS011;63800;51.972;5.682;2023-03-23T09:26:55;6.93;;;1.80;;
75216;SDS011;63800;51.972;5.682;2023-03-23T09:29:20;6.72;;;2.08;;
75216;SDS011;63800;51.972;5.682;2023-03-23T09:31:46;4.30;;;2.63;;
75216;SDS011;63800;51.972;5.682;2023-03-23T09:34:12;3.80;;;1.63;;
75216;SDS011;63800;51.972;5.682;2023-03-23T09:36:41;6.05;;;2.38;;
75216;SDS011;63800;51.972;5.682;2023-03-23T09:39:08;7.47;;;1.95;;
75216;SDS011;63800;51.972;5.682;2023-03-23T09:45:14;4.68;;;1.90;;
75216;SDS011;63800;51.972;5.682;2023-03-23T09:47:56;6.35;;;1.88;;
75216;SDS011;63800;51.972;5.682;2023-03-23T09:50:43;5.35;;;2.03;;
75216;SDS011;63800;51.972;5.682;2023-03-23T09:53:20;6.47;;;2.50;;
75216;SDS011;63800;51.972;5.682;2023-03-23T09:55:49;8.95;;;1.90;;
75216;SDS011;63800;51.972;5.682;2023-03-23T09:58:20;4.10;;;2.22;;
75216;SDS011;63800;51.972;5.682;2023-03-23T10:00:57;5.57;;;2.22;;
75216;SDS011;63800;51.972;5.682;2023-03-23T10:03:41;7.97;;;2.47;;
75216;SDS011;63800;51.972;5.682;2023-03-23T10:06:13;5.55;;;2.42;;
75216;SDS011;63800;51.972;5.682;2023-03-23T10:08:52;5.72;;;2.20;;
75216;SDS011;63800;51.972;5.682;2023-03-23T10:11:33;7.43;;;2.45;;
75216;SDS011;63800;51.972;5.682;2023-03-23T10:16:38;6.40;;;2.20;;
75216;SDS011;63800;51.972;5.682;2023-03-23T10:22:22;8.88;;;2.42;;
75216;SDS011;63800;51.972;5.682;2023-03-23T10:27:43;8.27;;;2.83;;
75216;SDS011;63800;51.972;5.682;2023-03-23T10:35:56;10.02;;;2.72;;
75216;SDS011;63800;51.972;5.682;2023-03-23T10:38:48;6.57;;;2.47;;
75216;SDS011;63800;51.972;5.682;2023-03-23T10:41:19;5.60;;;2.15;;
75216;SDS011;63800;51.972;5.682;2023-03-23T10:43:46;8.02;;;2.50;;
75216;SDS011;63800;51.972;5.682;2023-03-23T10:48:53;7.68;;;2.50;;
75216;SDS011;63800;51.972;5.682;2023-03-23T10:51:22;6.43;;;2.70;;
75216;SDS011;63800;51.972;5.682;2023-03-23T10:53:56;4.72;;;2.00;;
75216;SDS011;63800;51.972;5.682;2023-03-23T10:56:24;7.72;;;2.22;;
75216;SDS011;63800;51.972;5.682;2023-03-23T10:58:58;9.98;;;2.83;;
75216;SDS011;63800;51.972;5.682;2023-03-23T11:01:31;9.82;;;3.17;;
75216;SDS011;63800;51.972;5.682;2023-03-23T11:03:58;7.68;;;2.20;;
75216;SDS011;63800;51.972;5.682;2023-03-23T11:06:32;8.57;;;2.83;;
75216;SDS011;63800;51.972;5.682;2023-03-23T11:09:11;8.30;;;2.90;;
75216;SDS011;63800;51.972;5.682;2023-03-23T11:11:42;8.63;;;2.53;;
75216;SDS011;63800;51.972;5.682;2023-03-23T11:14:27;8.00;;;2.25;;
75216;SDS011;63800;51.972;5.682;2023-03-23T11:16:55;6.82;;;2.45;;
75216;SDS011;63800;51.972;5.682;2023-03-23T11:19:24;5.72;;;2.58;;
75216;SDS011;63800;51.972;5.682;2023-03-23T11:21:51;8.20;;;2.42;;
75216;SDS011;63800;51.972;5.682;2023-03-23T11:24:21;7.20;;;3.13;;
75216;SDS011;63800;51.972;5.682;2023-03-23T11:26:48;5.32;;;2.85;;
75216;SDS011;63800;51.972;5.682;2023-03-23T11:29:16;5.85;;;2.42;;
75216;SDS011;63800;51.972;5.682;2023-03-23T11:31:47;6.20;;;2.25;;
75216;SDS011;63800;51.972;5.682;2023-03-23T11:41:59;6.30;;;2.75;;
75216;SDS011;63800;51.972;5.682;2023-03-23T11:44:39;8.65;;;2.55;;
75216;SDS011;63800;51.972;5.682;2023-03-23T11:55:20;3.58;;;2.25;;
75216;SDS011;63800;51.972;5.682;2023-03-23T11:57:52;6.70;;;1.60;;
75216;SDS011;63800;51.972;5.682;2023-03-23T12:00:20;8.90;;;2.30;;
75216;SDS011;63800;51.972;5.682;2023-03-23T12:08:45;6.65;;;2.38;;
75216;SDS011;63800;51.972;5.682;2023-03-23T12:11:35;5.90;;;2.13;;
75216;SDS011;63800;51.972;5.682;2023-03-23T12:14:04;7.22;;;2.10;;
75216;SDS011;63800;51.972;5.682;2023-03-23T12:28:15;6.57;;;2.78;;
75216;SDS011;63800;51.972;5.682;2023-03-23T12:47:45;7.10;;;3.20;;
75216;SDS011;63800;51.972;5.682;2023-03-23T12:50:21;4.97;;;2.72;;
75216;SDS011;63800;51.972;5.682;2023-03-23T12:53:08;8.55;;;3.15;;
75216;SDS011;63800;51.972;5.682;2023-03-23T12:58:21;7.97;;;3.13;;
75216;SDS011;63800;51.972;5.682;2023-03-23T13:01:02;8.20;;;3.13;;
75216;SDS011;63800;51.972;5.682;2023-03-23T13:06:40;9.32;;;3.05;;
75216;SDS011;63800;51.972;5.682;2023-03-23T13:09:17;5.03;;;2.83;;
75216;SDS011;63800;51.972;5.682;2023-03-23T13:12:03;4.32;;;1.88;;
75216;SDS011;63800;51.972;5.682;2023-03-23T13:14:37;3.95;;;1.70;;
75216;SDS011;63800;51.972;5.682;2023-03-23T13:25:50;5.78;;;1.88;;
75216;SDS011;63800;51.972;5.682;2023-03-23T13:28:23;2.55;;;1.38;;
75216;SDS011;63800;51.972;5.682;2023-03-23T13:30:57;3.15;;;1.58;;
75216;SDS011;63800;51.972;5.682;2023-03-23T13:33:37;3.75;;;1.52;;
75216;SDS011;63800;51.972;5.682;2023-03-23T13:36:12;2.80;;;1.55;;
75216;SDS011;63800;51.972;5.682;2023-03-23T13:38:47;6.57;;;1.63;;
75216;SDS011;63800;51.972;5.682;2023-03-23T13:41:15;4.65;;;1.52;;
75216;SDS011;63800;51.972;5.682;2023-03-23T13:43:43;2.67;;;1.67;;
75216;SDS011;63800;51.972;5.682;2023-03-23T13:48:51;3.60;;;1.80;;
75216;SDS011;63800;51.972;5.682;2023-03-23T13:54:45;4.30;;;2.10;;
75216;SDS011;63800;51.972;5.682;2023-03-23T13:57:23;6.60;;;2.80;;
75216;SDS011;63800;51.972;5.682;2023-03-23T14:00:24;3.50;;;2.35;;
75216;SDS011;63800;51.972;5.682;2023-03-23T14:02:51;5.10;;;2.85;;
75216;SDS011;63800;51.972;5.682;2023-03-23T14:08:01;7.20;;;3.03;;
75216;SDS011;63800;51.972;5.682;2023-03-23T14:13:14;5.55;;;2.83;;
75216;SDS011;63800;51.972;5.682;2023-03-23T14:15:53;4.47;;;3.03;;
75216;SDS011;63800;51.972;5.682;2023-03-23T14:18:22;6.85;;;2.90;;
75216;SDS011;63800;51.972;5.682;2023-03-23T14:20:51;5.38;;;2.63;;
75216;SDS011;63800;51.972;5.682;2023-03-23T14:23:18;9.45;;;3.20;;
75216;SDS011;63800;51.972;5.682;2023-03-23T14:25:44;5.28;;;3.00;;
75216;SDS011;63800;51.972;5.682;2023-03-23T14:28:19;4.82;;;2.95;;
75216;SDS011;63800;51.972;5.682;2023-03-23T14:30:46;6.30;;;2.92;;
75216;SDS011;63800;51.972;5.682;2023-03-23T14:33:17;5.45;;;2.47;;
75216;SDS011;63800;51.972;5.682;2023-03-23T14:35:44;6.70;;;2.70;;
75216;SDS011;63800;51.972;5.682;2023-03-23T14:38:17;5.35;;;2.97;;
75216;SDS011;63800;51.972;5.682;2023-03-23T14:40:46;3.92;;;1.95;;
75216;SDS011;63800;51.972;5.682;2023-03-23T14:43:14;6.75;;;2.30;;
75216;SDS011;63800;51.972;5.682;2023-03-23T14:45:42;7.75;;;2.42;;
75216;SDS011;63800;51.972;5.682;2023-03-23T14:48:08;5.35;;;1.92;;
75216;SDS011;63800;51.972;5.682;2023-03-23T14:50:40;5.43;;;2.10;;
75216;SDS011;63800;51.972;5.682;2023-03-23T14:53:11;4.10;;;2.25;;
75216;SDS011;63800;51.972;5.682;2023-03-23T14:55:42;3.30;;;1.67;;
75216;SDS011;63800;51.972;5.682;2023-03-23T14:58:09;6.05;;;1.90;;
75216;SDS011;63800;51.972;5.682;2023-03-23T15:00:40;5.28;;;1.67;;
75216;SDS011;63800;51.972;5.682;2023-03-23T15:03:11;4.93;;;2.10;;
75216;SDS011;63800;51.972;5.682;2023-03-23T15:05:50;8.98;;;2.08;;
75216;SDS011;63800;51.972;5.682;2023-03-23T15:08:20;6.60;;;1.88;;
75216;SDS011;63800;51.972;5.682;2023-03-23T15:11:04;9.02;;;2.25;;
75216;SDS011;63800;51.972;5.682;2023-03-23T15:13:36;6.68;;;2.08;;
75216;SDS011;63800;51.972;5.682;2023-03-23T15:16:22;6.80;;;2.00;;
75216;SDS011;63800;51.972;5.682;2023-03-23T15:18:56;7.78;;;2.17;;
75216;SDS011;63800;51.972;5.682;2023-03-23T15:21:27;6.10;;;2.33;;
75216;SDS011;63800;51.972;5.682;2023-03-23T15:23:54;5.10;;;2.00;;
75216;SDS011;63800;51.972;5.682;2023-03-23T15:29:27;7.00;;;2.30;;
75216;SDS011;63800;51.972;5.682;2023-03-23T15:31:52;4.70;;;2.55;;
75216;SDS011;63800;51.972;5.682;2023-03-23T15:37:03;9.57;;;2.80;;
75216;SDS011;63800;51.972;5.682;2023-03-23T15:39:31;15.48;;;2.67;;
75216;SDS011;63800;51.972;5.682;2023-03-23T15:41:58;5.00;;;1.98;;
75216;SDS011;63800;51.972;5.682;2023-03-23T15:44:26;7.55;;;3.10;;
75216;SDS011;63800;51.972;5.682;2023-03-23T15:47:01;7.13;;;2.20;;
75216;SDS011;63800;51.972;5.682;2023-03-23T15:49:35;5.68;;;2.20;;
75216;SDS011;63800;51.972;5.682;2023-03-23T15:52:01;6.18;;;2.20;;
75216;SDS011;63800;51.972;5.682;2023-03-23T15:54:29;9.63;;;2.33;;
75216;SDS011;63800;51.972;5.682;2023-03-23T15:56:56;11.63;;;2.70;;
75216;SDS011;63800;51.972;5.682;2023-03-23T15:59:22;7.90;;;2.72;;
75216;SDS011;63800;51.972;5.682;2023-03-23T16:01:47;6.93;;;2.28;;
75216;SDS011;63800;51.972;5.682;2023-03-23T16:04:13;10.95;;;2.42;;
75216;SDS011;63800;51.972;5.682;2023-03-23T16:06:43;10.50;;;2.22;;
75216;SDS011;63800;51.972;5.682;2023-03-23T16:09:16;7.78;;;2.45;;
75216;SDS011;63800;51.972;5.682;2023-03-23T16:11:43;8.18;;;2.45;;
75216;SDS011;63800;51.972;5.682;2023-03-23T16:14:09;8.05;;;3.40;;
75216;SDS011;63800;51.972;5.682;2023-03-23T16:19:05;7.97;;;2.10;;
75216;SDS011;63800;51.972;5.682;2023-03-23T16:21:31;5.22;;;2.50;;
75216;SDS011;63800;51.972;5.682;2023-03-23T16:23:56;5.78;;;2.17;;
75216;SDS011;63800;51.972;5.682;2023-03-23T16:26:22;5.03;;;2.38;;
75216;SDS011;63800;51.972;5.682;2023-03-23T16:28:48;7.63;;;2.55;;
75216;SDS011;63800;51.972;5.682;2023-03-23T16:31:14;9.23;;;3.22;;
75216;SDS011;63800;51.972;5.682;2023-03-23T16:33:40;7.85;;;2.70;;
75216;SDS011;63800;51.972;5.682;2023-03-23T16:36:05;7.72;;;2.78;;
75216;SDS011;63800;51.972;5.682;2023-03-23T16:38:31;8.25;;;2.40;;
75216;SDS011;63800;51.972;5.682;2023-03-23T16:40:57;5.72;;;2.13;;
75216;SDS011;63800;51.972;5.682;2023-03-23T16:43:23;7.80;;;2.55;;
75216;SDS011;63800;51.972;5.682;2023-03-23T16:45:48;6.47;;;2.28;;
75216;SDS011;63800;51.972;5.682;2023-03-23T16:48:14;5.57;;;2.30;;
75216;SDS011;63800;51.972;5.682;2023-03-23T16:50:41;7.22;;;2.42;;
75216;SDS011;63800;51.972;5.682;2023-03-23T16:53:08;6.97;;;2.33;;
75216;SDS011;63800;51.972;5.682;2023-03-23T16:55:34;4.18;;;2.28;;
75216;SDS011;63800;51.972;5.682;2023-03-23T16:58:00;5.45;;;2.00;;
75216;SDS011;63800;51.972;5.682;2023-03-23T17:00:26;5.75;;;2.28;;
75216;SDS011;63800;51.972;5.682;2023-03-23T17:02:52;3.95;;;2.17;;
75216;SDS011;63800;51.972;5.682;2023-03-23T17:05:21;9.15;;;2.78;;
75216;SDS011;63800;51.972;5.682;2023-03-23T17:07:48;3.47;;;1.85;;
75216;SDS011;63800;51.972;5.682;2023-03-23T17:10:14;7.88;;;2.15;;